createdAt,value
2022-09-11T00:01:00.810Z,4.60
2022-09-11T00:03:30.042Z,10.25
2022-09-11T00:05:57.180Z,4.28
2022-09-11T00:08:24.326Z,5.55
2022-09-11T00:10:51.743Z,3.70
2022-09-11T00:13:21.552Z,5.38
2022-09-11T00:15:50.087Z,3.45
2022-09-11T00:18:18.192Z,3.53
2022-09-11T00:20:49.856Z,3.58
2022-09-11T00:23:17.868Z,3.90
2022-09-11T00:25:46.310Z,6.13
2022-09-11T00:28:34.520Z,3.70
2022-09-11T00:31:22.049Z,5.90
2022-09-11T00:33:49.446Z,5.40
2022-09-11T00:36:17.830Z,4.63
2022-09-11T00:38:46.426Z,6.28
2022-09-11T00:41:14.968Z,5.60
2022-09-11T00:43:51.460Z,4.80
2022-09-11T00:46:19.034Z,8.73
2022-09-11T00:48:50.760Z,7.07
2022-09-11T00:51:20.013Z,4.90
2022-09-11T00:53:47.807Z,4.60
2022-09-11T00:56:15.021Z,4.85
2022-09-11T00:58:44.178Z,7.75
2022-09-11T01:01:11.778Z,6.07
2022-09-11T01:03:38.956Z,4.55
2022-09-11T01:06:07.153Z,8.40
2022-09-11T01:08:38.262Z,6.97
2022-09-11T01:11:13.711Z,5.68
2022-09-11T01:14:04.250Z,7.78
2022-09-11T01:16:49.291Z,7.15
2022-09-11T01:19:16.428Z,6.10
2022-09-11T01:22:01.451Z,6.72
2022-09-11T01:24:39.114Z,5.43
2022-09-11T01:27:08.919Z,7.30
2022-09-11T01:29:40.300Z,4.07
2022-09-11T01:32:21.640Z,4.38
2022-09-11T01:35:04.488Z,4.20
2022-09-11T01:37:50.207Z,4.15
2022-09-11T01:40:20.841Z,3.90
2022-09-11T01:42:50.360Z,4.38
2022-09-11T01:45:17.552Z,6.47
2022-09-11T01:47:46.096Z,3.58
2022-09-11T01:50:14.483Z,4.18
2022-09-11T01:52:50.419Z,4.25
2022-09-11T01:55:20.334Z,6.78
2022-09-11T01:57:50.430Z,3.80
2022-09-11T02:00:17.832Z,3.13
2022-09-11T02:02:52.082Z,7.82
2022-09-11T02:05:22.995Z,4.47
2022-09-11T02:07:52.754Z,6.28
2022-09-11T02:10:24.547Z,2.50
2022-09-11T02:12:59.007Z,2.53
2022-09-11T02:15:29.290Z,2.58
2022-09-11T02:18:03.474Z,3.08
2022-09-11T02:20:31.600Z,3.72
2022-09-11T02:22:58.905Z,3.40
2022-09-11T02:25:26.004Z,4.95
2022-09-11T02:27:54.670Z,3.25
2022-09-11T02:30:21.767Z,2.90
2022-09-11T02:32:48.804Z,3.97
2022-09-11T02:35:16.391Z,2.53
2022-09-11T02:37:46.209Z,4.97
2022-09-11T02:40:31.377Z,5.55
2022-09-11T02:43:08.666Z,2.95
2022-09-11T02:46:02.991Z,2.35
2022-09-11T02:48:43.365Z,3.55
2022-09-11T02:51:19.737Z,2.65
2022-09-11T02:53:49.849Z,4.40
2022-09-11T02:56:35.785Z,3.05
2022-09-11T02:59:07.577Z,3.78
2022-09-11T03:01:55.239Z,5.28
2022-09-11T03:04:24.426Z,2.17
2022-09-11T03:06:52.174Z,3.60
2022-09-11T03:09:19.734Z,2.65
2022-09-11T03:11:47.799Z,2.33
2022-09-11T03:14:15.266Z,2.00
2022-09-11T03:16:43.798Z,2.30
2022-09-11T03:19:11.753Z,2.17
2022-09-11T03:21:38.889Z,1.75
2022-09-11T03:24:06.350Z,1.90
2022-09-11T03:26:33.556Z,1.80
2022-09-11T03:29:01.643Z,3.55
2022-09-11T03:31:29.045Z,3.70
2022-09-11T03:33:56.342Z,2.75
2022-09-11T03:36:23.867Z,4.35
2022-09-11T03:38:51.203Z,3.13
2022-09-11T03:41:18.306Z,3.15
2022-09-11T03:43:45.365Z,4.40
2022-09-11T03:46:12.407Z,3.40
2022-09-11T03:48:39.595Z,3.22
2022-09-11T03:51:06.651Z,3.15
2022-09-11T03:53:33.945Z,4.90
2022-09-11T03:56:01.304Z,5.20
2022-09-11T03:58:28.357Z,5.65
2022-09-11T04:00:56.172Z,13.05
2022-09-11T04:03:23.294Z,11.40
2022-09-11T04:05:57.937Z,8.18
2022-09-11T04:08:24.986Z,3.78
2022-09-11T04:10:58.530Z,2.38
2022-09-11T04:15:52.965Z,4.00
2022-09-11T04:18:20.077Z,3.35
2022-09-11T04:20:47.150Z,4.68
2022-09-11T04:23:14.358Z,2.95
2022-09-11T04:25:41.627Z,2.80
2022-09-11T04:28:08.943Z,2.78
2022-09-11T04:30:38.616Z,2.20
2022-09-11T04:33:05.919Z,3.22
2022-09-11T04:35:33.405Z,3.53
2022-09-11T04:38:00.443Z,3.42
2022-09-11T04:40:27.488Z,2.78
2022-09-11T04:42:54.580Z,2.92
2022-09-11T04:45:21.800Z,4.22
2022-09-11T04:47:49.270Z,3.05
2022-09-11T04:50:16.354Z,9.02
2022-09-11T04:52:45.087Z,3.08
2022-09-11T04:55:12.151Z,6.43
2022-09-11T04:57:39.256Z,5.30
2022-09-11T05:00:07.109Z,8.10
2022-09-11T05:02:34.207Z,3.72
2022-09-11T05:05:01.720Z,3.25
2022-09-11T05:07:29.402Z,3.05
2022-09-11T05:09:56.502Z,3.03
2022-09-11T05:12:23.641Z,3.70
2022-09-11T05:14:51.268Z,3.05
2022-09-11T05:17:18.323Z,3.33
2022-09-11T05:19:45.467Z,3.55
2022-09-11T05:22:12.633Z,4.60
2022-09-11T05:24:40.403Z,7.35
2022-09-11T05:27:08.139Z,3.92
2022-09-11T05:29:35.204Z,5.53
2022-09-11T05:32:03.549Z,4.55
2022-09-11T05:34:30.661Z,8.02
2022-09-11T05:36:58.019Z,9.23
2022-09-11T05:39:25.472Z,7.65
2022-09-11T05:41:52.792Z,6.32
2022-09-11T05:44:20.394Z,11.77
2022-09-11T05:46:48.657Z,6.03
2022-09-11T05:49:16.029Z,8.35
2022-09-11T05:51:43.079Z,6.47
2022-09-11T05:54:10.192Z,15.18
2022-09-11T05:56:37.336Z,8.25
2022-09-11T05:59:04.999Z,9.25
2022-09-11T06:01:32.217Z,9.75
2022-09-11T06:03:59.295Z,10.88
2022-09-11T06:06:26.871Z,11.13
2022-09-11T06:08:54.174Z,5.80
2022-09-11T06:11:22.487Z,10.13
2022-09-11T06:13:49.970Z,7.10
2022-09-11T06:16:21.196Z,5.43
2022-09-11T06:18:49.404Z,9.10
2022-09-11T06:21:20.375Z,5.40
2022-09-11T06:23:48.394Z,9.25
2022-09-11T06:26:16.186Z,7.80
2022-09-11T06:28:43.371Z,8.43
2022-09-11T06:31:12.748Z,5.57
2022-09-11T06:33:40.809Z,9.35
2022-09-11T06:36:10.653Z,14.85
2022-09-11T06:38:41.179Z,9.38
2022-09-11T06:41:12.411Z,7.75
2022-09-11T06:43:39.508Z,6.80
2022-09-11T06:46:07.713Z,7.10
2022-09-11T06:48:34.828Z,6.65
2022-09-11T06:51:05.712Z,6.25
2022-09-11T06:53:32.764Z,6.00
2022-09-11T06:56:00.881Z,8.77
2022-09-11T06:58:29.255Z,5.55
2022-09-11T07:00:57.454Z,6.15
2022-09-11T07:03:24.567Z,6.00
2022-09-11T07:05:51.697Z,7.85
2022-09-11T07:08:24.361Z,6.22
2022-09-11T07:10:52.161Z,7.93
2022-09-11T07:13:19.515Z,7.20
2022-09-11T07:15:49.445Z,6.40
2022-09-11T07:18:18.083Z,8.18
2022-09-11T07:20:51.285Z,7.57
2022-09-11T07:23:19.296Z,8.55
2022-09-11T07:25:46.360Z,8.10
2022-09-11T07:28:13.448Z,8.50
2022-09-11T07:30:40.932Z,8.40
2022-09-11T07:33:08.008Z,9.00
2022-09-11T07:35:37.373Z,7.28
2022-09-11T07:38:04.477Z,7.43
2022-09-11T07:40:31.603Z,7.35
2022-09-11T07:42:59.347Z,7.50
2022-09-11T07:45:28.239Z,7.93
2022-09-11T07:47:55.653Z,8.15
2022-09-11T07:50:24.227Z,6.80
2022-09-11T07:52:51.393Z,8.18
2022-09-11T07:55:18.927Z,7.13
2022-09-11T07:57:47.210Z,7.65
2022-09-11T08:00:16.355Z,10.10
2022-09-11T08:02:43.547Z,6.68
2022-09-11T08:05:10.985Z,7.90
2022-09-11T08:07:38.280Z,7.53
2022-09-11T08:10:26.014Z,8.43
2022-09-11T08:12:56.820Z,7.85
2022-09-11T08:17:54.317Z,33.55
2022-09-11T08:20:21.689Z,10.82
2022-09-11T08:22:48.729Z,8.25
2022-09-11T08:25:16.212Z,9.90
2022-09-11T08:27:43.262Z,7.10
2022-09-11T08:30:11.094Z,10.82
2022-09-11T08:32:40.072Z,9.05
2022-09-11T08:35:07.337Z,7.70
2022-09-11T08:37:34.382Z,8.63
2022-09-11T08:40:02.137Z,8.20
2022-09-11T08:42:29.346Z,8.02
2022-09-11T08:44:59.231Z,8.45
2022-09-11T08:47:27.996Z,8.10
2022-09-11T08:50:00.269Z,8.40
2022-09-11T08:52:27.939Z,8.90
2022-09-11T08:54:57.273Z,8.15
2022-09-11T08:57:29.095Z,9.07
2022-09-11T08:59:56.638Z,8.30
2022-09-11T09:02:27.189Z,6.93
2022-09-11T09:05:14.526Z,7.45
2022-09-11T09:07:57.717Z,8.45
2022-09-11T09:10:27.866Z,8.63
2022-09-11T09:13:00.727Z,7.63
2022-09-11T09:15:31.077Z,7.38
2022-09-11T09:18:00.701Z,6.38
2022-09-11T09:20:30.263Z,8.75
2022-09-11T09:22:59.947Z,11.63
2022-09-11T09:25:27.335Z,11.52
2022-09-11T09:28:01.925Z,11.18
2022-09-11T09:30:29.716Z,9.80
2022-09-11T09:32:59.896Z,8.75
2022-09-11T09:35:30.579Z,11.43
2022-09-11T09:37:57.617Z,8.43
2022-09-11T09:40:26.162Z,7.93
2022-09-11T09:43:19.449Z,10.48
2022-09-11T09:45:55.757Z,8.33
2022-09-11T09:48:23.125Z,7.55
2022-09-11T09:50:50.313Z,7.72
2022-09-11T09:53:23.095Z,7.53
2022-09-11T09:55:52.889Z,6.07
2022-09-11T09:58:20.087Z,6.10
2022-09-11T10:00:47.128Z,5.72
2022-09-11T10:03:20.411Z,5.90
2022-09-11T10:05:48.116Z,5.47
2022-09-11T10:08:27.247Z,6.85
2022-09-11T10:10:58.015Z,5.25
2022-09-11T10:13:27.576Z,5.65
2022-09-11T10:15:57.054Z,5.18
2022-09-11T10:18:33.768Z,5.13
2022-09-11T10:21:13.147Z,4.07
2022-09-11T10:23:46.702Z,3.75
2022-09-11T10:28:41.044Z,4.72
2022-09-11T10:31:08.302Z,4.18
2022-09-11T10:33:37.144Z,4.75
2022-09-11T10:36:06.076Z,4.40
2022-09-11T10:38:45.650Z,6.25
2022-09-11T10:41:12.947Z,5.18
2022-09-11T10:44:00.434Z,4.88
2022-09-11T10:46:39.973Z,4.28
2022-09-11T10:49:08.277Z,4.80
2022-09-11T10:51:36.630Z,7.80
2022-09-11T10:54:07.153Z,4.55
2022-09-11T10:56:39.206Z,4.30
2022-09-11T10:59:07.567Z,4.40
2022-09-11T11:01:34.711Z,3.53
2022-09-11T11:04:01.783Z,7.07
2022-09-11T11:06:42.302Z,4.78
2022-09-11T11:09:09.333Z,11.35
2022-09-11T11:12:01.591Z,2.92
2022-09-11T11:14:32.163Z,5.97
2022-09-11T11:17:12.002Z,4.80
2022-09-11T11:19:48.377Z,3.42
2022-09-11T11:22:22.556Z,3.67
2022-09-11T11:24:56.652Z,5.05
2022-09-11T11:27:44.821Z,5.93
2022-09-11T11:30:11.944Z,6.25
2022-09-11T11:32:58.318Z,5.70
2022-09-11T11:35:32.014Z,4.28
2022-09-11T11:38:03.443Z,4.03
2022-09-11T11:40:43.250Z,3.40
2022-09-11T11:43:17.448Z,3.78
2022-09-11T11:45:50.248Z,4.22
2022-09-11T11:48:25.409Z,3.60
2022-09-11T11:50:58.045Z,4.00
2022-09-11T11:53:31.456Z,4.38
2022-09-11T11:56:17.907Z,4.43
2022-09-11T11:58:51.185Z,4.38
2022-09-11T12:01:38.650Z,4.57
2022-09-11T12:04:11.376Z,5.13
2022-09-11T12:06:38.552Z,5.38
2022-09-11T12:09:05.950Z,5.40
2022-09-11T12:11:33.836Z,5.18
2022-09-11T12:14:01.747Z,3.65
2022-09-11T12:16:39.010Z,4.68
2022-09-11T12:19:25.762Z,3.85
2022-09-11T12:21:52.786Z,4.93
2022-09-11T12:24:43.413Z,4.13
2022-09-11T12:27:29.324Z,4.10
2022-09-11T12:30:07.982Z,6.32
2022-09-11T12:32:42.711Z,8.15
2022-09-11T12:35:21.984Z,5.35
2022-09-11T12:38:09.303Z,4.75
2022-09-11T12:40:39.169Z,4.68
2022-09-11T12:43:20.573Z,4.80
2022-09-11T12:45:48.406Z,4.55
2022-09-11T12:48:17.363Z,5.05
2022-09-11T12:50:51.564Z,5.40
2022-09-11T12:53:23.492Z,7.97
2022-09-11T12:56:01.360Z,5.97
2022-09-11T12:58:31.284Z,5.18
2022-09-11T13:01:20.403Z,3.75
2022-09-11T13:03:50.497Z,3.92
2022-09-11T13:06:17.707Z,3.05
2022-09-11T13:08:50.866Z,4.00
2022-09-11T13:11:36.814Z,4.50
2022-09-11T13:14:04.576Z,5.10
2022-09-11T13:16:34.705Z,5.72
2022-09-11T13:19:17.029Z,6.40
2022-09-11T13:21:45.826Z,6.53
2022-09-11T13:24:31.338Z,6.90
2022-09-11T13:27:04.913Z,7.22
2022-09-11T13:32:00.608Z,6.53
2022-09-11T13:34:30.004Z,6.75
2022-09-11T13:36:58.558Z,6.47
2022-09-11T13:39:27.165Z,9.43
2022-09-11T13:41:58.997Z,7.75
2022-09-11T13:44:31.419Z,6.28
2022-09-11T13:46:58.915Z,6.32
2022-09-11T13:49:36.407Z,9.68
2022-09-11T13:52:05.477Z,4.70
2022-09-11T13:54:34.776Z,5.30
2022-09-11T13:57:01.823Z,5.22
2022-09-11T13:59:48.042Z,3.90
2022-09-11T14:02:28.232Z,4.13
2022-09-11T14:05:01.514Z,4.13
2022-09-11T14:07:28.829Z,3.78
2022-09-11T14:10:03.263Z,4.20
2022-09-11T14:12:32.017Z,3.90
2022-09-11T14:15:02.066Z,4.20
2022-09-11T14:17:29.851Z,4.82
2022-09-11T14:20:01.193Z,4.47
2022-09-11T14:22:31.058Z,4.78
2022-09-11T14:25:04.278Z,5.97
2022-09-11T14:27:32.746Z,4.88
2022-09-11T14:30:00.555Z,4.60
2022-09-11T14:32:40.145Z,4.30
2022-09-11T14:35:09.331Z,3.88
2022-09-11T14:37:40.233Z,4.57
2022-09-11T14:40:14.538Z,3.90
2022-09-11T14:42:42.604Z,3.78
2022-09-11T14:45:19.047Z,4.30
2022-09-11T14:47:46.743Z,3.20
2022-09-11T14:50:14.068Z,3.60
2022-09-11T14:52:42.522Z,4.28
2022-09-11T14:55:16.690Z,2.90
2022-09-11T14:57:44.135Z,3.25
2022-09-11T15:00:11.584Z,2.90
2022-09-11T15:02:39.171Z,2.85
2022-09-11T15:05:07.740Z,2.83
2022-09-11T15:07:35.785Z,2.40
2022-09-11T15:10:02.827Z,2.83
2022-09-11T15:12:30.313Z,2.97
2022-09-11T15:14:59.294Z,2.92
2022-09-11T15:17:31.428Z,3.72
2022-09-11T15:19:59.964Z,3.42
2022-09-11T15:22:27.179Z,3.28
2022-09-11T15:24:56.484Z,3.45
2022-09-11T15:27:25.157Z,3.58
2022-09-11T15:29:52.603Z,3.50
2022-09-11T15:32:21.179Z,3.50
2022-09-11T15:34:48.291Z,2.97
2022-09-11T15:37:18.680Z,3.35
2022-09-11T15:39:45.871Z,3.25
2022-09-11T15:42:13.455Z,3.15
2022-09-11T15:44:40.638Z,3.00
2022-09-11T15:47:07.908Z,3.17
2022-09-11T15:49:39.711Z,3.70
2022-09-11T15:52:06.908Z,3.47
2022-09-11T15:54:34.697Z,3.97
2022-09-11T15:57:01.803Z,3.70
2022-09-11T15:59:28.879Z,4.25
2022-09-11T16:01:56.327Z,4.35
2022-09-11T16:04:26.244Z,5.60
2022-09-11T16:06:54.346Z,4.43
2022-09-11T16:09:23.248Z,5.13
2022-09-11T16:11:50.842Z,3.88
2022-09-11T16:14:25.063Z,3.17
2022-09-11T16:16:52.501Z,4.30
2022-09-11T16:19:20.740Z,4.43
2022-09-11T16:21:48.341Z,3.65
2022-09-11T16:24:16.170Z,5.72
2022-09-11T16:26:44.108Z,4.00
2022-09-11T16:29:12.526Z,6.68
2022-09-11T16:31:40.227Z,7.20
2022-09-11T16:34:07.814Z,6.80
2022-09-11T16:36:38.796Z,4.88
2022-09-11T16:39:10.224Z,4.50
2022-09-11T16:41:37.656Z,6.05
2022-09-11T16:44:05.364Z,4.07
2022-09-11T16:46:33.366Z,3.85
2022-09-11T16:49:02.023Z,4.05
2022-09-11T16:51:29.875Z,3.80
2022-09-11T16:53:58.266Z,4.03
2022-09-11T16:56:25.847Z,4.05
2022-09-11T16:58:54.457Z,5.03
2022-09-11T17:01:23.509Z,5.15
2022-09-11T17:03:51.448Z,4.10
2022-09-11T17:06:21.998Z,5.10
2022-09-11T17:08:52.463Z,5.10
2022-09-11T17:11:21.538Z,6.32
2022-09-11T17:13:48.919Z,6.45
2022-09-11T17:16:20.610Z,6.45
2022-09-11T17:18:53.469Z,6.72
2022-09-11T17:21:22.897Z,8.43
2022-09-11T17:23:50.353Z,7.32
2022-09-11T17:26:17.483Z,7.45
2022-09-11T17:28:47.193Z,9.00
2022-09-11T17:31:15.784Z,6.40
2022-09-11T17:33:43.301Z,7.53
2022-09-11T17:36:11.031Z,6.72
2022-09-11T17:38:39.371Z,12.20
2022-09-11T17:41:08.062Z,9.23
2022-09-11T17:43:36.432Z,9.43
2022-09-11T17:46:05.049Z,9.88
2022-09-11T17:48:32.524Z,7.97
2022-09-11T17:51:02.756Z,7.28
2022-09-11T17:53:36.465Z,9.52
2022-09-11T17:56:07.148Z,7.22
2022-09-11T17:58:34.909Z,7.47
2022-09-11T18:01:02.908Z,8.80
2022-09-11T18:03:31.703Z,10.32
2022-09-11T18:05:59.246Z,7.90
2022-09-11T18:08:26.749Z,7.97
2022-09-11T18:10:54.753Z,10.52
2022-09-11T18:13:22.142Z,9.35
2022-09-11T18:15:50.403Z,8.10
2022-09-11T18:18:17.826Z,11.63
2022-09-11T18:20:44.937Z,8.88
2022-09-11T18:23:12.753Z,11.95
2022-09-11T18:25:40.595Z,10.13
2022-09-11T18:28:09.767Z,11.88
2022-09-11T18:30:41.403Z,9.05
2022-09-11T18:33:10.920Z,11.50
2022-09-11T18:35:38.537Z,10.00
2022-09-11T18:38:06.495Z,12.82
2022-09-11T18:40:33.752Z,10.52
2022-09-11T18:43:02.157Z,10.75
2022-09-11T18:45:30.656Z,9.48
2022-09-11T18:47:57.830Z,9.15
2022-09-11T18:50:25.320Z,13.38
2022-09-11T18:52:52.555Z,16.23
2022-09-11T18:55:24.358Z,12.38
2022-09-11T18:57:52.046Z,11.30
2022-09-11T19:00:19.215Z,11.00
2022-09-11T19:02:47.427Z,11.13
2022-09-11T19:05:18.779Z,9.65
2022-09-11T19:07:47.722Z,11.68
2022-09-11T19:10:15.146Z,13.07
2022-09-11T19:12:42.296Z,12.52
2022-09-11T19:15:09.567Z,12.05
2022-09-11T19:17:38.203Z,12.60
2022-09-11T19:20:07.700Z,12.80
2022-09-11T19:22:34.983Z,10.80
2022-09-11T19:25:02.398Z,16.48
2022-09-11T19:27:31.613Z,14.00
2022-09-11T19:29:59.941Z,12.50
2022-09-11T19:32:28.168Z,9.77
2022-09-11T19:34:55.769Z,11.07
2022-09-11T19:37:24.204Z,9.80
2022-09-11T19:39:51.893Z,10.13
2022-09-11T19:42:19.543Z,12.10
2022-09-11T19:44:46.755Z,13.70
2022-09-11T19:47:14.106Z,11.75
2022-09-11T19:49:41.215Z,20.45
2022-09-11T19:52:10.423Z,15.15
2022-09-11T19:54:38.024Z,14.68
2022-09-11T19:57:05.438Z,14.25
2022-09-11T19:59:33.889Z,13.40
2022-09-11T20:02:01.021Z,14.80
2022-09-11T20:04:28.204Z,16.05
2022-09-11T20:09:36.731Z,13.82
2022-09-11T20:12:04.065Z,18.85
2022-09-11T20:14:31.405Z,14.77
2022-09-11T20:17:00.431Z,14.68
2022-09-11T20:19:27.846Z,17.63
2022-09-11T20:21:54.926Z,17.45
2022-09-11T20:24:22.130Z,16.38
2022-09-11T20:26:50.198Z,21.77
2022-09-11T20:29:17.310Z,22.25
2022-09-11T20:31:48.724Z,24.98
2022-09-11T20:34:17.328Z,21.38
2022-09-11T20:36:44.465Z,16.20
2022-09-11T20:39:13.382Z,19.42
2022-09-11T20:41:40.544Z,15.10
2022-09-11T20:44:07.574Z,16.55
2022-09-11T20:46:34.847Z,15.05
2022-09-11T20:49:03.080Z,12.68
2022-09-11T20:51:30.309Z,13.55
2022-09-11T20:53:57.687Z,16.42
2022-09-11T20:56:24.862Z,17.42
2022-09-11T20:58:52.524Z,16.55
2022-09-11T21:01:21.392Z,20.30
2022-09-11T21:03:49.970Z,21.83
2022-09-11T21:06:18.481Z,18.73
2022-09-11T21:08:50.601Z,15.70
2022-09-11T21:11:17.928Z,17.88
2022-09-11T21:13:45.239Z,23.83
2022-09-11T21:16:13.819Z,21.73
2022-09-11T21:18:44.938Z,34.22
2022-09-11T21:21:11.998Z,32.63
2022-09-11T21:23:39.530Z,36.95
2022-09-11T21:26:10.365Z,29.52
2022-09-11T21:28:37.431Z,24.88
2022-09-11T21:31:04.950Z,24.90
2022-09-11T21:33:33.632Z,20.45
2022-09-11T21:36:00.908Z,21.60
2022-09-11T21:38:29.425Z,18.58
2022-09-11T21:41:00.736Z,15.30
2022-09-11T21:43:28.238Z,17.33
2022-09-11T21:45:55.379Z,16.95
2022-09-11T21:48:22.502Z,18.95
2022-09-11T21:50:49.673Z,15.98
2022-09-11T21:53:16.737Z,19.17
2022-09-11T21:55:45.269Z,21.98
2022-09-11T21:58:17.166Z,19.20
2022-09-11T22:00:44.361Z,22.67
2022-09-11T22:03:18.464Z,17.20
2022-09-11T22:05:47.679Z,15.40
2022-09-11T22:08:16.270Z,18.80
2022-09-11T22:10:44.029Z,18.38
2022-09-11T22:13:11.157Z,15.68
2022-09-11T22:15:41.790Z,17.80
2022-09-11T22:18:09.152Z,14.15
2022-09-11T22:20:39.971Z,13.43
2022-09-11T22:23:07.262Z,13.82
2022-09-11T22:25:36.718Z,17.73
2022-09-11T22:28:06.764Z,13.90
2022-09-11T22:30:33.942Z,12.32
2022-09-11T22:33:01.163Z,17.05
2022-09-11T22:35:28.810Z,16.13
2022-09-11T22:37:55.883Z,17.45
2022-09-11T22:40:23.060Z,16.77
2022-09-11T22:42:50.268Z,19.02
2022-09-11T22:45:17.814Z,16.25
2022-09-11T22:47:44.884Z,12.60
2022-09-11T22:50:13.216Z,13.65
2022-09-11T22:52:40.756Z,10.52
2022-09-11T22:55:08.163Z,11.25
2022-09-11T22:57:35.890Z,10.35
2022-09-11T23:00:05.047Z,12.70
2022-09-11T23:02:32.116Z,11.02
2022-09-11T23:05:17.868Z,9.30
2022-09-11T23:07:45.207Z,10.35
2022-09-11T23:10:13.489Z,9.25
2022-09-11T23:12:40.929Z,9.50
2022-09-11T23:15:08.296Z,9.15
2022-09-11T23:17:35.357Z,10.05
2022-09-11T23:20:02.627Z,8.60
2022-09-11T23:22:29.783Z,11.23
2022-09-11T23:24:56.895Z,14.32
2022-09-11T23:27:24.710Z,13.55
2022-09-11T23:29:51.936Z,12.30
2022-09-11T23:32:18.985Z,18.98
2022-09-11T23:34:46.066Z,16.50
2022-09-11T23:37:13.188Z,22.83
2022-09-11T23:39:40.418Z,19.02
2022-09-11T23:42:07.691Z,15.85
2022-09-11T23:44:34.717Z,14.85
2022-09-11T23:47:02.253Z,14.13
2022-09-11T23:49:33.101Z,11.35
2022-09-11T23:52:02.794Z,12.95
2022-09-11T23:54:29.970Z,14.25
2022-09-11T23:56:58.222Z,13.48
2022-09-11T23:59:25.303Z,11.48
